Current Weather

NSFA McMurdo Sound

NSFA McMurdo Sound, Antarctica (NZCM)

Report from: Friday, July 12, 2024 5:55 PM UTC
Current time: Friday, July 12, 2024 11:47 PM UTC

Nearby weather – Weather history – Daily summaries
Weather forecast

Present weatherLight snow, mist
Temperature-28.4°C (-19.1°F)
Wind chill-43.0°C (-45.4°F)
Dew point-32.8°C (-27.0°F)
Winds 15 kts (7.7 m/s, 17.3 mph) East-Northeast (60°)
Visibility1.2 mi. (1.9 km)
Clouds Ceiling: Overcast 100 ft. (30 m)
Altimeter29.11 in.Hg (986 mB)
Precip. events Snow began 5:31 PM
Relative humidity66 %
Density altitude-8,163 ft. (-2,488 m)
Sea-level pressure108.7 kPa (1087 mB, 32.09 in.Hg)
Max temp last 6 hours-26.1°C (-15.0°F)
Min temp last 6 hours-33.5°C (-28.3°F)
Remarks Fully automated report
System requires maintenance
Automated weather observing station with precipitation discriminator
Pressure falling more quickly
Flight conditions Low Instrument Meteorological Conditions
Raw dataNZCM 121755Z AUTO 06015KT 1900 -SN BR OVC001 M28/M33 A2911 RMK AO2 SNB1731 SLP866 T12841328 11261 21335 58008 $
An unhandled exception has occurred. See browser dev tools for details. Reload 🗙